createdAt,value
2023-11-09T00:01:41.010Z,8.45
2023-11-09T00:04:09.040Z,9.00
2023-11-09T00:06:36.573Z,9.52
2023-11-09T00:09:05.143Z,8.52
2023-11-09T00:11:32.560Z,7.40
2023-11-09T00:14:00.661Z,9.63
2023-11-09T00:16:27.934Z,10.98
2023-11-09T00:18:57.258Z,9.57
2023-11-09T00:21:24.608Z,10.25
2023-11-09T00:23:52.207Z,9.10
2023-11-09T00:26:19.459Z,8.95
2023-11-09T00:28:52.170Z,9.98
2023-11-09T00:31:23.803Z,9.77
2023-11-09T00:33:51.410Z,9.38
2023-11-09T00:36:19.569Z,12.32
2023-11-09T00:38:50.851Z,14.48
2023-11-09T00:41:18.217Z,10.75
2023-11-09T00:43:46.107Z,13.90
2023-11-09T00:46:13.409Z,10.95
2023-11-09T00:48:41.115Z,11.15
2023-11-09T00:51:08.330Z,9.25
2023-11-09T00:53:36.840Z,9.15
2023-11-09T00:56:06.747Z,10.27
2023-11-09T00:58:34.429Z,10.48
2023-11-09T01:01:03.654Z,9.63
2023-11-09T01:03:31.858Z,9.18
2023-11-09T01:06:01.760Z,10.15
2023-11-09T01:08:29.726Z,7.90
2023-11-09T01:10:57.532Z,7.68
2023-11-09T01:13:25.044Z,7.80
2023-11-09T01:15:52.494Z,7.00
2023-11-09T01:18:20.269Z,7.15
2023-11-09T01:20:49.018Z,7.00
2023-11-09T01:23:16.838Z,7.32
2023-11-09T01:25:44.922Z,6.10
2023-11-09T01:28:12.703Z,5.55
2023-11-09T01:30:39.914Z,6.07
2023-11-09T01:33:07.551Z,5.82
2023-11-09T01:35:34.787Z,8.00
2023-11-09T01:38:02.790Z,7.72
2023-11-09T01:40:30.055Z,6.43
2023-11-09T01:42:57.817Z,5.05
2023-11-09T01:45:25.117Z,5.78
2023-11-09T01:47:54.609Z,5.90
2023-11-09T01:50:22.547Z,5.43
2023-11-09T01:52:49.976Z,6.03
2023-11-09T01:55:17.623Z,5.40
2023-11-09T01:57:45.158Z,4.97
2023-11-09T02:00:15.791Z,4.80
2023-11-09T02:02:43.331Z,5.35
2023-11-09T02:05:11.766Z,4.85
2023-11-09T02:07:39.087Z,4.72
2023-11-09T02:10:09.477Z,5.03
2023-11-09T02:12:36.746Z,5.13
2023-11-09T02:15:04.733Z,5.43
2023-11-09T02:17:32.657Z,6.80
2023-11-09T02:20:00.269Z,5.88
2023-11-09T02:22:28.342Z,5.05
2023-11-09T02:24:56.806Z,6.38
2023-11-09T02:27:24.123Z,5.45
2023-11-09T02:29:51.977Z,5.32
2023-11-09T02:32:19.694Z,5.20
2023-11-09T02:34:49.620Z,6.10
2023-11-09T02:37:17.753Z,6.53
2023-11-09T02:39:45.246Z,6.70
2023-11-09T02:42:12.543Z,4.68
2023-11-09T02:44:40.700Z,4.22
2023-11-09T02:47:07.907Z,4.88
2023-11-09T02:49:35.519Z,5.40
2023-11-09T02:52:02.828Z,5.55
2023-11-09T02:54:30.292Z,4.70
2023-11-09T02:56:57.515Z,5.07
2023-11-09T02:59:25.448Z,4.97
2023-11-09T03:01:52.692Z,4.25
2023-11-09T03:04:20.554Z,5.50
2023-11-09T03:06:47.829Z,4.65
2023-11-09T03:09:18.231Z,4.80
2023-11-09T03:11:46.358Z,4.68
2023-11-09T03:14:14.598Z,4.97
2023-11-09T03:16:42.137Z,5.03
2023-11-09T03:19:09.714Z,5.72
2023-11-09T03:21:37.306Z,5.15
2023-11-09T03:24:05.353Z,4.38
2023-11-09T03:26:33.063Z,4.30
2023-11-09T03:29:00.612Z,4.50
2023-11-09T03:31:27.875Z,3.28
2023-11-09T03:33:57.789Z,3.38
2023-11-09T03:36:25.159Z,3.70
2023-11-09T03:38:53.123Z,3.50
2023-11-09T03:41:21.008Z,3.50
2023-11-09T03:43:48.834Z,4.15
2023-11-09T03:46:16.134Z,3.72
2023-11-09T03:48:43.671Z,3.83
2023-11-09T03:51:10.965Z,3.70
2023-11-09T03:53:38.437Z,4.10
2023-11-09T03:56:05.733Z,3.63
2023-11-09T03:58:34.894Z,3.10
2023-11-09T04:01:04.340Z,3.65
2023-11-09T04:03:32.054Z,3.40
2023-11-09T04:05:59.318Z,3.85
2023-11-09T04:08:26.934Z,4.03
2023-11-09T04:10:54.138Z,4.80
2023-11-09T04:13:21.679Z,5.65
2023-11-09T04:15:48.903Z,4.80
2023-11-09T04:18:16.489Z,5.32
2023-11-09T04:20:44.481Z,5.20
2023-11-09T04:23:12.189Z,6.03
2023-11-09T04:25:39.474Z,6.15
2023-11-09T04:28:07.382Z,4.28
2023-11-09T04:30:34.546Z,4.47
2023-11-09T04:33:02.468Z,4.30
2023-11-09T04:35:31.911Z,5.32
2023-11-09T04:37:59.637Z,5.00
2023-11-09T04:40:27.258Z,4.57
2023-11-09T04:42:58.165Z,4.10
2023-11-09T04:45:27.239Z,4.35
2023-11-09T04:48:02.450Z,3.50
2023-11-09T04:50:32.430Z,4.40
2023-11-09T04:53:31.758Z,4.57
2023-11-09T04:56:08.243Z,4.82
2023-11-09T04:58:49.427Z,5.68
2023-11-09T05:01:36.652Z,5.90
2023-11-09T05:04:25.971Z,5.72
2023-11-09T05:06:56.723Z,7.22
2023-11-09T05:09:28.880Z,7.30
2023-11-09T05:11:57.453Z,7.53
2023-11-09T05:14:25.522Z,7.57
2023-11-09T05:16:53.559Z,6.97
2023-11-09T05:19:21.640Z,6.97
2023-11-09T05:21:55.624Z,7.30
2023-11-09T05:24:27.352Z,6.72
2023-11-09T05:26:54.783Z,8.43
2023-11-09T05:29:22.703Z,8.20
2023-11-09T05:31:51.690Z,8.35
2023-11-09T05:34:19.338Z,9.63
2023-11-09T05:36:56.372Z,11.20
2023-11-09T05:39:38.149Z,8.85
2023-11-09T05:42:10.615Z,9.13
2023-11-09T05:44:39.365Z,10.57
2023-11-09T05:47:07.273Z,11.02
2023-11-09T05:49:34.790Z,11.05
2023-11-09T05:52:02.031Z,12.02
2023-11-09T05:54:29.564Z,10.88
2023-11-09T05:56:57.144Z,12.88
2023-11-09T05:59:24.732Z,10.80
2023-11-09T06:01:52.412Z,11.05
2023-11-09T06:04:20.169Z,9.55
2023-11-09T06:06:47.392Z,7.20
2023-11-09T06:09:16.437Z,7.93
2023-11-09T06:11:44.631Z,10.55
2023-11-09T06:14:14.836Z,11.25
2023-11-09T06:16:43.476Z,7.38
2023-11-09T06:19:12.031Z,7.22
2023-11-09T06:21:39.544Z,6.20
2023-11-09T06:24:08.086Z,9.30
2023-11-09T06:26:36.438Z,7.13
2023-11-09T06:29:04.255Z,5.95
2023-11-09T06:31:31.970Z,5.40
2023-11-09T06:34:01.249Z,14.90
2023-11-09T06:36:28.635Z,4.68
2023-11-09T06:38:56.631Z,4.97
2023-11-09T06:41:28.939Z,4.95
2023-11-09T06:43:57.275Z,3.92
2023-11-09T06:46:28.048Z,4.47
2023-11-09T06:48:55.720Z,4.30
2023-11-09T06:51:23.095Z,3.75
2023-11-09T06:53:52.382Z,7.40
2023-11-09T06:56:19.549Z,4.95
2023-11-09T06:58:47.634Z,5.28
2023-11-09T07:01:15.801Z,5.88
2023-11-09T07:03:43.598Z,4.05
2023-11-09T07:06:10.747Z,3.72
2023-11-09T07:08:38.243Z,3.50
2023-11-09T07:11:09.042Z,3.10
2023-11-09T07:13:38.423Z,4.13
2023-11-09T07:16:08.544Z,3.92
2023-11-09T07:18:37.756Z,3.75
2023-11-09T07:21:12.054Z,3.30
2023-11-09T07:23:40.627Z,3.60
2023-11-09T07:26:08.092Z,2.97
2023-11-09T07:28:35.970Z,2.40
2023-11-09T07:31:03.305Z,3.05
2023-11-09T07:33:31.125Z,2.80
2023-11-09T07:36:00.534Z,2.47
2023-11-09T07:38:36.072Z,2.80
2023-11-09T07:41:05.758Z,2.63
2023-11-09T07:43:36.302Z,3.53
2023-11-09T07:46:04.082Z,3.30
2023-11-09T07:48:33.314Z,3.55
2023-11-09T07:51:02.481Z,3.15
2023-11-09T07:53:30.199Z,3.28
2023-11-09T07:56:02.598Z,5.90
2023-11-09T07:58:32.684Z,3.38
2023-11-09T08:01:02.647Z,3.25
2023-11-09T08:03:33.096Z,3.45
2023-11-09T08:06:06.902Z,3.03
2023-11-09T08:08:36.741Z,3.47
2023-11-09T08:11:04.756Z,3.53
2023-11-09T08:13:32.919Z,3.67
2023-11-09T08:16:00.889Z,3.42
2023-11-09T08:18:29.582Z,3.58
2023-11-09T08:20:58.607Z,3.72
2023-11-09T08:23:26.419Z,3.00
2023-11-09T08:25:54.861Z,3.22
2023-11-09T08:28:22.389Z,2.78
2023-11-09T08:30:55.726Z,2.60
2023-11-09T08:33:26.698Z,3.10
2023-11-09T08:35:55.702Z,3.15
2023-11-09T08:38:24.860Z,3.30
2023-11-09T08:40:52.991Z,3.63
2023-11-09T08:43:20.885Z,3.33
2023-11-09T08:45:48.205Z,3.30
2023-11-09T08:48:17.077Z,3.53
2023-11-09T08:50:47.112Z,3.53
2023-11-09T08:53:17.628Z,3.33
2023-11-09T08:55:45.841Z,3.45
2023-11-09T08:58:18.025Z,4.25
2023-11-09T09:00:46.672Z,3.97
2023-11-09T09:03:14.855Z,3.42
2023-11-09T09:05:42.886Z,4.32
2023-11-09T09:08:10.484Z,4.80
2023-11-09T09:10:39.681Z,3.75
2023-11-09T09:13:08.985Z,5.00
2023-11-09T09:15:36.634Z,4.53
2023-11-09T09:18:04.415Z,4.88
2023-11-09T09:20:32.065Z,5.78
2023-11-09T09:23:01.795Z,4.85
2023-11-09T09:25:31.850Z,6.63
2023-11-09T09:28:00.496Z,4.40
2023-11-09T09:30:28.317Z,4.20
2023-11-09T09:32:57.202Z,4.43
2023-11-09T09:35:32.795Z,4.05
2023-11-09T09:38:06.768Z,3.45
2023-11-09T09:40:47.152Z,6.25
2023-11-09T09:43:21.172Z,2.20
2023-11-09T09:45:59.073Z,3.05
2023-11-09T09:48:29.065Z,2.67
2023-11-09T09:50:59.910Z,2.95
2023-11-09T09:53:28.555Z,2.30
2023-11-09T09:55:57.815Z,4.35
2023-11-09T09:58:25.497Z,2.55
2023-11-09T10:00:56.651Z,3.92
2023-11-09T10:03:27.026Z,3.60
2023-11-09T10:05:54.482Z,3.50
2023-11-09T10:08:25.292Z,2.80
2023-11-09T10:10:55.414Z,3.05
2023-11-09T10:13:26.642Z,2.35
2023-11-09T10:15:59.143Z,2.88
2023-11-09T10:18:31.232Z,2.80
2023-11-09T10:21:00.725Z,2.95
2023-11-09T10:23:28.711Z,2.50
2023-11-09T10:26:01.179Z,2.63
2023-11-09T10:28:34.055Z,2.67
2023-11-09T10:31:01.872Z,3.00
2023-11-09T10:33:31.873Z,2.70
2023-11-09T10:36:00.057Z,3.10
2023-11-09T10:38:31.721Z,2.83
2023-11-09T10:41:15.345Z,4.28
2023-11-09T10:43:52.015Z,4.00
2023-11-09T10:46:21.135Z,3.72
2023-11-09T10:48:51.863Z,3.20
2023-11-09T10:51:36.424Z,6.82
2023-11-09T10:54:29.843Z,4.63
2023-11-09T11:03:59.918Z,3.72
2023-11-09T11:07:00.301Z,3.90
2023-11-09T11:09:42.182Z,4.20
2023-11-09T11:12:25.700Z,4.35
2023-11-09T11:15:21.891Z,4.03
2023-11-09T11:18:27.986Z,4.70
2023-11-09T11:21:35.360Z,4.30
2023-11-09T11:25:12.275Z,4.53
2023-11-09T11:28:04.943Z,4.07
2023-11-09T11:30:42.870Z,4.38
2023-11-09T11:33:18.622Z,4.22
2023-11-09T11:35:58.077Z,3.88
2023-11-09T11:38:34.272Z,4.65
2023-11-09T11:41:17.855Z,3.35
2023-11-09T11:43:52.133Z,3.83
2023-11-09T11:46:28.005Z,4.15
2023-11-09T11:48:58.667Z,4.03
2023-11-09T11:51:28.747Z,4.55
2023-11-09T11:54:09.636Z,4.25
2023-11-09T11:56:39.690Z,4.22
2023-11-09T11:59:10.868Z,4.18
2023-11-09T12:01:41.879Z,3.80
2023-11-09T12:04:15.691Z,5.60
2023-11-09T12:06:45.839Z,3.35
2023-11-09T12:09:16.739Z,3.97
2023-11-09T12:11:49.317Z,3.78
2023-11-09T12:14:21.310Z,3.55
2023-11-09T12:16:50.223Z,3.40
2023-11-09T12:19:19.715Z,3.80
2023-11-09T12:21:48.318Z,3.42
2023-11-09T12:24:24.528Z,3.53
2023-11-09T12:27:10.275Z,3.20
2023-11-09T12:32:08.263Z,3.85
2023-11-09T12:34:41.218Z,3.00
2023-11-09T12:37:15.037Z,3.78
2023-11-09T12:39:44.177Z,3.45
2023-11-09T12:42:13.486Z,6.40
2023-11-09T12:44:48.030Z,2.83
2023-11-09T12:47:17.372Z,4.78
2023-11-09T12:49:51.037Z,5.43
2023-11-09T12:52:29.867Z,5.00
2023-11-09T12:54:58.521Z,6.32
2023-11-09T12:57:26.637Z,6.13
2023-11-09T12:59:57.417Z,4.53
2023-11-09T13:02:43.938Z,4.80
2023-11-09T13:05:14.750Z,4.20
2023-11-09T13:08:19.986Z,3.72
2023-11-09T13:11:46.521Z,3.42
2023-11-09T13:15:17.681Z,3.15
2023-11-09T13:24:46.647Z,3.47
2023-11-09T13:28:04.227Z,3.10
2023-11-09T13:31:31.339Z,3.80
2023-11-09T13:34:29.105Z,3.35
2023-11-09T13:37:02.362Z,3.40
2023-11-09T13:40:33.080Z,2.95
2023-11-09T13:43:44.190Z,4.78
2023-11-09T13:46:29.621Z,4.70
2023-11-09T13:49:29.403Z,4.13
2023-11-09T13:52:26.446Z,3.85
2023-11-09T13:55:05.441Z,3.55
2023-11-09T13:57:34.289Z,4.30
2023-11-09T14:00:59.246Z,4.10
2023-11-09T14:03:41.959Z,3.28
2023-11-09T14:06:41.675Z,4.80
2023-11-09T14:09:54.078Z,5.10
2023-11-09T14:12:53.891Z,4.63
2023-11-09T14:15:51.412Z,4.25
2023-11-09T14:21:25.296Z,6.90
2023-11-09T14:23:52.794Z,6.45
2023-11-09T14:26:28.634Z,7.65
2023-11-09T14:29:06.612Z,6.63
2023-11-09T14:31:38.249Z,4.38
2023-11-09T14:34:13.629Z,6.50
2023-11-09T14:36:51.988Z,6.38
2023-11-09T14:39:39.632Z,6.25
2023-11-09T14:42:09.592Z,7.43
2023-11-09T14:45:57.517Z,6.68
2023-11-09T14:48:33.461Z,6.82
2023-11-09T14:51:25.980Z,7.68
2023-11-09T14:54:04.170Z,6.20
2023-11-09T14:56:39.785Z,5.90
2023-11-09T14:59:21.670Z,6.15
2023-11-09T15:02:22.457Z,6.47
2023-11-09T15:04:56.553Z,6.10
2023-11-09T15:08:01.986Z,7.35
2023-11-09T15:10:38.852Z,12.20
2023-11-09T15:13:57.269Z,17.75
2023-11-09T15:16:27.009Z,21.60
2023-11-09T15:18:58.425Z,20.20
2023-11-09T15:21:28.755Z,20.55
2023-11-09T15:24:08.109Z,16.65
2023-11-09T15:26:44.278Z,17.33
2023-11-09T15:29:13.858Z,16.17
2023-11-09T15:32:21.209Z,14.32
2023-11-09T15:34:57.155Z,18.50
2023-11-09T15:38:12.000Z,13.32
2023-11-09T15:41:16.973Z,10.77
2023-11-09T15:43:56.374Z,7.65
2023-11-09T15:46:27.514Z,8.05
2023-11-09T15:48:56.609Z,8.93
2023-11-09T15:51:32.589Z,9.85
2023-11-09T15:54:01.139Z,13.32
2023-11-09T15:56:30.861Z,10.05
2023-11-09T15:58:58.550Z,9.05
2023-11-09T16:01:28.104Z,12.05
2023-11-09T16:03:58.035Z,9.30
2023-11-09T16:06:27.628Z,40.38
2023-11-09T16:08:56.915Z,9.88
2023-11-09T16:11:24.819Z,11.00
2023-11-09T16:13:52.961Z,9.48
2023-11-09T16:16:24.359Z,9.55
2023-11-09T16:18:56.170Z,10.45
2023-11-09T16:21:28.150Z,9.07
2023-11-09T16:24:00.960Z,11.10
2023-11-09T16:26:38.198Z,9.65
2023-11-09T16:29:14.680Z,9.63
2023-11-09T16:31:48.081Z,8.63
2023-11-09T16:34:19.080Z,8.93
2023-11-09T16:36:46.805Z,8.73
2023-11-09T16:39:18.163Z,9.95
2023-11-09T16:41:49.464Z,8.98
2023-11-09T16:44:16.954Z,9.77
2023-11-09T16:46:44.616Z,10.20
2023-11-09T16:49:12.388Z,9.20
2023-11-09T16:51:40.651Z,17.10
2023-11-09T16:54:07.897Z,38.00
2023-11-09T16:56:35.806Z,21.13
2023-11-09T16:59:03.753Z,16.80
2023-11-09T17:01:31.702Z,18.98
2023-11-09T17:04:07.942Z,20.48
2023-11-09T17:06:38.038Z,19.20
2023-11-09T17:09:08.020Z,17.90
2023-11-09T17:11:43.476Z,20.20
2023-11-09T17:14:10.878Z,18.02
2023-11-09T17:16:46.880Z,17.25
2023-11-09T17:19:15.960Z,15.32
2023-11-09T17:21:45.281Z,15.65
2023-11-09T17:24:13.617Z,14.43
2023-11-09T17:26:41.126Z,18.83
2023-11-09T17:29:08.341Z,16.48
2023-11-09T17:31:37.279Z,12.52
2023-11-09T17:34:04.808Z,13.43
2023-11-09T17:36:32.888Z,13.82
2023-11-09T17:39:00.856Z,14.30
2023-11-09T17:41:33.140Z,18.42
2023-11-09T17:44:04.854Z,21.40
2023-11-09T17:46:35.193Z,24.13
2023-11-09T17:49:03.870Z,24.83
2023-11-09T17:51:36.835Z,26.40
2023-11-09T17:54:06.200Z,25.25
2023-11-09T17:56:42.048Z,23.00
2023-11-09T17:59:12.251Z,25.20
2023-11-09T18:01:40.834Z,24.42
2023-11-09T18:04:11.362Z,28.88
2023-11-09T18:06:44.240Z,17.83
2023-11-09T18:09:12.893Z,20.35
2023-11-09T18:11:44.123Z,15.45
2023-11-09T18:14:16.877Z,12.13
2023-11-09T18:16:50.681Z,12.00
2023-11-09T18:19:18.775Z,14.00
2023-11-09T18:21:50.536Z,10.93
2023-11-09T18:24:23.548Z,14.40
2023-11-09T18:26:52.281Z,16.58
2023-11-09T18:29:20.459Z,13.88
2023-11-09T18:31:49.929Z,12.77
2023-11-09T18:34:17.817Z,17.65
2023-11-09T18:36:46.026Z,12.68
2023-11-09T18:39:13.732Z,11.90
2023-11-09T18:41:42.269Z,9.27
2023-11-09T18:44:09.784Z,10.68
2023-11-09T18:46:37.438Z,11.18
2023-11-09T18:51:40.319Z,11.25
2023-11-09T18:54:07.831Z,10.95
2023-11-09T18:56:36.456Z,11.63
2023-11-09T18:59:04.364Z,10.27
2023-11-09T19:01:31.912Z,10.40
2023-11-09T19:06:37.187Z,9.57
2023-11-09T19:09:08.036Z,11.13
2023-11-09T19:11:43.514Z,12.27
2023-11-09T19:14:18.054Z,8.85
2023-11-09T19:17:13.068Z,9.27
2023-11-09T19:19:40.375Z,10.45
2023-11-09T19:24:39.424Z,8.40
2023-11-09T19:27:07.820Z,8.82
2023-11-09T19:29:35.119Z,9.25
2023-11-09T19:32:05.832Z,10.63
2023-11-09T19:34:34.498Z,9.32
2023-11-09T19:37:03.735Z,9.38
2023-11-09T19:40:00.682Z,11.35
2023-11-09T19:42:36.752Z,10.07
2023-11-09T19:45:11.365Z,10.25
2023-11-09T19:47:51.971Z,10.07
2023-11-09T19:50:26.090Z,9.95
2023-11-09T19:53:20.906Z,10.07
2023-11-09T19:55:49.253Z,10.35
2023-11-09T19:58:16.880Z,10.60
2023-11-09T20:00:45.577Z,12.75
2023-11-09T20:03:13.567Z,16.98
2023-11-09T20:05:42.387Z,18.10
2023-11-09T20:08:11.301Z,21.02
2023-11-09T20:10:44.999Z,13.38
2023-11-09T20:13:15.448Z,14.23
2023-11-09T20:15:45.829Z,13.48
2023-11-09T20:18:15.727Z,11.13
2023-11-09T20:20:44.521Z,11.82
2023-11-09T20:23:40.206Z,12.13
2023-11-09T20:26:10.261Z,11.05
2023-11-09T20:28:42.534Z,9.85
2023-11-09T20:31:10.688Z,11.57
2023-11-09T20:33:47.673Z,9.85
2023-11-09T20:36:48.599Z,9.98
2023-11-09T20:39:24.929Z,9.00
2023-11-09T20:42:17.779Z,10.40
2023-11-09T20:44:45.630Z,8.38
2023-11-09T20:47:14.266Z,8.77
2023-11-09T20:49:48.341Z,9.18
2023-11-09T20:52:53.148Z,8.40
2023-11-09T20:55:34.746Z,7.10
2023-11-09T20:58:11.686Z,7.65
2023-11-09T21:01:06.829Z,8.07
2023-11-09T21:03:37.023Z,8.00
2023-11-09T21:06:30.009Z,9.10
2023-11-09T21:09:10.212Z,8.55
2023-11-09T21:11:43.968Z,10.15
2023-11-09T21:14:20.048Z,14.05
2023-11-09T21:16:53.459Z,10.25
2023-11-09T21:19:21.618Z,10.70
2023-11-09T21:22:14.425Z,9.82
2023-11-09T21:25:08.959Z,10.98
2023-11-09T21:27:54.361Z,10.48
2023-11-09T21:30:34.248Z,12.00
2023-11-09T21:33:28.173Z,10.82
2023-11-09T21:35:59.987Z,9.90
2023-11-09T21:38:29.059Z,10.10
2023-11-09T21:41:08.981Z,10.45
2023-11-09T21:44:07.147Z,10.05
2023-11-09T21:47:02.469Z,10.20
2023-11-09T21:49:31.469Z,10.45
2023-11-09T21:52:01.897Z,10.05
2023-11-09T21:54:30.112Z,9.10
2023-11-09T21:57:22.185Z,11.63
2023-11-09T22:00:22.899Z,10.80
2023-11-09T22:02:51.430Z,15.20
2023-11-09T22:05:22.634Z,12.00
2023-11-09T22:08:04.209Z,10.30
2023-11-09T22:10:32.078Z,10.35
2023-11-09T22:12:59.526Z,9.88
2023-11-09T22:15:30.600Z,10.75
2023-11-09T22:17:58.712Z,8.68
2023-11-09T22:20:28.577Z,9.85
2023-11-09T22:22:56.033Z,8.95
2023-11-09T22:25:23.573Z,8.52
2023-11-09T22:27:50.869Z,9.02
2023-11-09T22:30:22.468Z,9.57
2023-11-09T22:32:52.734Z,10.65
2023-11-09T22:35:22.791Z,9.77
2023-11-09T22:37:50.653Z,9.15
2023-11-09T22:40:26.347Z,10.60
2023-11-09T22:42:56.676Z,9.70
2023-11-09T22:45:27.719Z,8.68
2023-11-09T22:47:55.278Z,8.20
2023-11-09T22:50:28.170Z,8.32
2023-11-09T22:52:56.557Z,10.07
2023-11-09T22:55:30.992Z,20.17
2023-11-09T22:57:59.746Z,10.35
2023-11-09T23:00:37.204Z,11.57
2023-11-09T23:03:06.159Z,13.15
2023-11-09T23:05:33.908Z,8.57
2023-11-09T23:08:01.170Z,8.65
2023-11-09T23:10:29.736Z,8.02
2023-11-09T23:12:57.071Z,7.03
2023-11-09T23:15:24.678Z,8.65
2023-11-09T23:17:52.123Z,8.45
2023-11-09T23:20:19.686Z,8.07
2023-11-09T23:22:54.116Z,7.55
2023-11-09T23:25:26.253Z,7.53
2023-11-09T23:27:57.490Z,6.47
2023-11-09T23:30:29.054Z,7.20
2023-11-09T23:32:56.409Z,7.10
2023-11-09T23:35:23.969Z,7.05
2023-11-09T23:37:51.239Z,7.75
2023-11-09T23:40:19.057Z,7.18
2023-11-09T23:42:46.671Z,7.35
2023-11-09T23:45:14.741Z,7.25
2023-11-09T23:47:42.657Z,6.88
2023-11-09T23:50:13.353Z,6.55
2023-11-09T23:53:05.968Z,7.20
2023-11-09T23:55:34.721Z,8.02
2023-11-09T23:58:02.139Z,7.25
